createdAt,value
2018-04-23T00:01:31.406Z,11.43
2018-04-23T00:03:58.101Z,12.23
2018-04-23T00:06:24.447Z,11.73
2018-04-23T00:08:50.885Z,12.00
2018-04-23T00:11:17.100Z,11.67
2018-04-23T00:13:45.035Z,13.07
2018-04-23T00:16:12.039Z,13.07
2018-04-23T00:18:38.765Z,12.40
2018-04-23T00:21:05.009Z,12.50
2018-04-23T00:23:31.754Z,13.00
2018-04-23T00:25:59.693Z,12.53
2018-04-23T00:28:26.286Z,13.23
2018-04-23T00:30:53.221Z,13.60
2018-04-23T00:33:19.615Z,13.33
2018-04-23T00:35:47.110Z,14.33
2018-04-23T00:38:14.607Z,12.13
2018-04-23T00:40:40.806Z,13.87
2018-04-23T00:43:07.013Z,14.50
2018-04-23T00:45:33.211Z,13.13
2018-04-23T00:48:01.090Z,13.33
2018-04-23T00:50:28.037Z,14.10
2018-04-23T00:53:06.516Z,13.73
2018-04-23T00:55:33.777Z,14.33
2018-04-23T00:58:00.571Z,15.10
2018-04-23T01:00:27.791Z,13.73
2018-04-23T01:02:53.991Z,12.27
2018-04-23T01:05:20.454Z,13.67
2018-04-23T01:07:47.428Z,13.90
2018-04-23T01:10:14.644Z,14.77
2018-04-23T01:12:40.845Z,13.20
2018-04-23T01:15:14.530Z,13.70
2018-04-23T01:17:42.276Z,15.23
2018-04-23T01:20:08.496Z,15.43
2018-04-23T01:22:36.130Z,14.13
2018-04-23T01:25:02.349Z,14.27
2018-04-23T01:27:29.529Z,14.73
2018-04-23T01:29:55.823Z,14.60
2018-04-23T01:32:22.029Z,14.97
2018-04-23T01:34:48.325Z,13.60
2018-04-23T01:37:14.537Z,13.33
2018-04-23T01:39:41.719Z,15.80
2018-04-23T01:42:08.915Z,15.10
2018-04-23T01:44:36.530Z,15.53
2018-04-23T01:47:04.040Z,13.97
2018-04-23T01:49:31.189Z,15.60
2018-04-23T01:51:57.388Z,13.67
2018-04-23T01:54:24.050Z,14.67
2018-04-23T01:56:51.320Z,17.00
2018-04-23T01:59:18.107Z,14.93
2018-04-23T02:01:46.002Z,14.87
2018-04-23T02:04:12.773Z,16.10
2018-04-23T02:06:39.512Z,15.53
2018-04-23T02:09:06.256Z,15.57
2018-04-23T02:11:33.432Z,18.50
2018-04-23T02:14:01.113Z,16.50
2018-04-23T02:16:28.704Z,15.47
2018-04-23T02:18:54.944Z,15.37
2018-04-23T02:21:21.891Z,16.10
2018-04-23T02:23:48.835Z,14.27
2018-04-23T02:26:15.676Z,14.00
2018-04-23T02:28:41.965Z,15.53
2018-04-23T02:31:08.327Z,15.10
2018-04-23T02:33:35.885Z,13.17
2018-04-23T02:36:03.157Z,13.80
2018-04-23T02:38:30.540Z,13.90
2018-04-23T02:40:57.981Z,15.67
2018-04-23T02:43:24.178Z,15.00
2018-04-23T02:45:51.366Z,21.17
2018-04-23T02:48:19.137Z,15.90
2018-04-23T02:50:46.315Z,15.37
2018-04-23T02:53:13.565Z,14.30
2018-04-23T02:55:41.561Z,14.27
2018-04-23T02:58:08.329Z,15.80
2018-04-23T03:00:35.057Z,16.00
2018-04-23T03:03:02.060Z,14.70
2018-04-23T03:05:29.131Z,14.10
2018-04-23T03:07:56.361Z,13.87
2018-04-23T03:10:24.065Z,15.90
2018-04-23T03:12:50.291Z,17.10
2018-04-23T03:15:16.727Z,15.37
2018-04-23T03:17:44.536Z,13.77
2018-04-23T03:20:12.034Z,13.70
2018-04-23T03:22:39.578Z,13.70
2018-04-23T03:25:07.366Z,13.73
2018-04-23T03:27:33.648Z,14.17
2018-04-23T03:30:00.587Z,13.47
2018-04-23T03:32:28.509Z,22.50
2018-04-23T03:34:54.968Z,13.50
2018-04-23T03:37:21.190Z,13.80
2018-04-23T03:39:47.973Z,14.83
2018-04-23T03:42:14.716Z,14.30
2018-04-23T03:44:41.289Z,16.13
2018-04-23T03:47:08.873Z,17.43
2018-04-23T03:49:35.077Z,15.30
2018-04-23T03:52:01.513Z,16.83
2018-04-23T03:54:28.513Z,16.53
2018-04-23T03:56:55.621Z,17.20
2018-04-23T03:59:23.590Z,19.40
2018-04-23T04:01:51.107Z,18.53
2018-04-23T04:04:17.849Z,20.63
2018-04-23T04:06:45.341Z,20.40
2018-04-23T04:09:11.543Z,20.13
2018-04-23T04:11:39.124Z,18.37
2018-04-23T04:14:17.558Z,16.90
2018-04-23T04:16:57.378Z,18.80
2018-04-23T04:19:23.590Z,17.50
2018-04-23T04:21:50.470Z,17.00
2018-04-23T04:24:16.710Z,19.03
2018-04-23T04:26:43.852Z,21.23
2018-04-23T04:29:10.945Z,18.87
2018-04-23T04:31:37.180Z,16.53
2018-04-23T04:34:03.879Z,18.73
2018-04-23T04:36:30.934Z,17.93
2018-04-23T04:38:58.686Z,19.00
2018-04-23T04:41:26.709Z,19.53
2018-04-23T04:43:52.931Z,19.33
2018-04-23T04:46:19.162Z,17.70
2018-04-23T04:48:45.986Z,18.57
2018-04-23T04:51:13.110Z,19.40
2018-04-23T04:53:40.048Z,19.13
2018-04-23T04:56:08.363Z,19.00
2018-04-23T04:58:35.094Z,19.40
2018-04-23T05:01:01.777Z,19.80
2018-04-23T05:03:29.318Z,16.73
2018-04-23T05:05:55.587Z,16.70
2018-04-23T05:08:22.182Z,17.77
2018-04-23T05:10:49.866Z,18.63
2018-04-23T05:13:16.074Z,16.83
2018-04-23T05:15:42.929Z,18.57
2018-04-23T05:18:09.737Z,21.13
2018-04-23T05:20:37.437Z,18.63
2018-04-23T05:23:03.713Z,20.20
2018-04-23T05:25:30.474Z,21.60
2018-04-23T05:27:57.219Z,20.63
2018-04-23T05:30:23.984Z,23.70
2018-04-23T05:32:50.227Z,21.23
2018-04-23T05:35:17.184Z,19.67
2018-04-23T05:37:43.357Z,20.33
2018-04-23T05:40:09.877Z,23.40
2018-04-23T05:42:36.209Z,22.27
2018-04-23T05:45:03.016Z,24.10
2018-04-23T05:47:29.960Z,21.13
2018-04-23T05:49:57.450Z,21.37
2018-04-23T05:52:24.464Z,21.90
2018-04-23T05:54:51.508Z,29.33
2018-04-23T05:57:18.698Z,23.73
2018-04-23T05:59:45.492Z,25.87
2018-04-23T06:02:12.508Z,23.13
2018-04-23T06:04:38.730Z,22.03
2018-04-23T06:07:05.575Z,21.93
2018-04-23T06:09:32.844Z,22.33
2018-04-23T06:11:59.814Z,21.60
2018-04-23T06:14:27.064Z,20.80
2018-04-23T06:16:53.244Z,20.33
2018-04-23T06:19:19.503Z,21.27
2018-04-23T06:21:45.721Z,23.10
2018-04-23T06:24:12.415Z,22.70
2018-04-23T06:26:38.645Z,22.83
2018-04-23T06:29:04.866Z,23.80
2018-04-23T06:31:31.827Z,23.07
2018-04-23T06:33:59.493Z,25.30
2018-04-23T06:36:26.258Z,31.13
2018-04-23T06:38:52.822Z,26.77
2018-04-23T06:41:20.389Z,27.70
2018-04-23T06:43:47.880Z,24.70
2018-04-23T06:46:15.146Z,26.27
2018-04-23T06:48:41.419Z,24.47
2018-04-23T06:51:08.959Z,23.07
2018-04-23T06:53:36.727Z,25.57
2018-04-23T06:56:03.289Z,25.80
2018-04-23T06:58:31.100Z,27.93
2018-04-23T07:00:58.044Z,26.73
2018-04-23T07:03:25.519Z,28.97
2018-04-23T07:05:52.528Z,28.17
2018-04-23T07:08:18.848Z,25.37
2018-04-23T07:10:46.024Z,28.70
2018-04-23T07:13:12.765Z,23.47
2018-04-23T07:15:40.353Z,25.80
2018-04-23T07:18:07.326Z,26.90
2018-04-23T07:20:34.351Z,27.20
2018-04-23T07:23:01.059Z,28.73
2018-04-23T07:25:28.371Z,26.73
2018-04-23T07:27:55.995Z,30.13
2018-04-23T07:30:22.790Z,28.13
2018-04-23T07:32:48.963Z,28.30
2018-04-23T07:35:15.843Z,27.73
2018-04-23T07:37:42.591Z,28.93
2018-04-23T07:40:09.335Z,26.77
2018-04-23T07:42:36.126Z,26.40
2018-04-23T07:45:02.417Z,28.83
2018-04-23T07:47:29.762Z,29.33
2018-04-23T07:49:56.307Z,30.30
2018-04-23T07:52:22.517Z,27.60
2018-04-23T07:54:49.689Z,28.17
2018-04-23T07:57:16.982Z,27.30
2018-04-23T07:59:43.973Z,29.73
2018-04-23T08:02:10.164Z,29.60
2018-04-23T08:04:36.674Z,31.53
2018-04-23T08:07:04.623Z,30.30
2018-04-23T08:09:32.647Z,27.40
2018-04-23T08:11:59.947Z,31.83
2018-04-23T08:14:27.537Z,30.27
2018-04-23T08:16:54.534Z,30.37
2018-04-23T08:19:21.544Z,30.00
2018-04-23T08:21:49.254Z,30.90
2018-04-23T08:24:16.849Z,30.00
2018-04-23T08:26:43.643Z,26.70
2018-04-23T08:29:09.890Z,26.67
2018-04-23T08:31:36.115Z,26.63
2018-04-23T08:34:02.697Z,29.60
2018-04-23T08:36:30.877Z,28.30
2018-04-23T08:38:58.535Z,26.70
2018-04-23T08:41:26.200Z,28.67
2018-04-23T08:43:53.803Z,28.07
2018-04-23T08:46:20.561Z,27.93
2018-04-23T08:48:48.100Z,27.00
2018-04-23T08:51:14.867Z,27.70
2018-04-23T08:53:41.111Z,24.47
2018-04-23T08:56:08.327Z,24.33
2018-04-23T08:58:35.094Z,27.40
2018-04-23T09:01:02.391Z,23.67
2018-04-23T09:03:29.326Z,25.00
2018-04-23T09:05:56.290Z,23.03
2018-04-23T09:08:23.017Z,24.57
2018-04-23T09:10:49.942Z,25.60
2018-04-23T09:13:17.506Z,24.80
2018-04-23T09:15:44.996Z,21.00
2018-04-23T09:18:11.847Z,20.13
2018-04-23T09:20:39.227Z,21.00
2018-04-23T09:23:06.448Z,19.83
2018-04-23T09:25:32.674Z,24.83
2018-04-23T09:27:58.863Z,18.67
2018-04-23T09:30:25.601Z,18.67
2018-04-23T09:32:53.494Z,16.67
2018-04-23T09:35:20.698Z,16.10
2018-04-23T09:37:47.506Z,17.10
2018-04-23T09:40:13.723Z,16.07
2018-04-23T09:42:41.884Z,15.93
2018-04-23T09:45:08.879Z,17.60
2018-04-23T09:47:35.121Z,16.30
2018-04-23T09:50:01.841Z,14.40
2018-04-23T09:52:29.159Z,14.17
2018-04-23T10:11:55.276Z,13.37
2018-04-23T10:14:22.776Z,12.90
2018-04-23T10:16:48.952Z,14.00
2018-04-23T10:19:16.850Z,12.87
2018-04-23T10:21:44.141Z,12.37
2018-04-23T10:24:11.689Z,13.70
2018-04-23T10:26:38.361Z,14.33
2018-04-23T10:29:05.300Z,12.90
2018-04-23T10:31:31.497Z,13.40
2018-04-23T10:33:59.379Z,14.80
2018-04-23T10:36:26.128Z,12.07
2018-04-23T10:38:53.069Z,13.10
2018-04-23T10:41:20.147Z,14.23
2018-04-23T10:43:46.521Z,12.50
2018-04-23T10:46:13.055Z,15.30
2018-04-23T10:48:40.097Z,13.40
2018-04-23T10:51:06.652Z,14.10
2018-04-23T10:53:32.816Z,12.10
2018-04-23T10:55:59.785Z,13.67
2018-04-23T10:58:26.379Z,14.03
2018-04-23T11:00:54.245Z,12.77
2018-04-23T11:03:21.123Z,11.13
2018-04-23T11:05:48.902Z,14.90
2018-04-23T11:08:15.142Z,11.63
2018-04-23T11:10:41.386Z,14.33
2018-04-23T11:13:08.120Z,15.27
2018-04-23T11:15:34.314Z,15.30
2018-04-23T11:18:01.181Z,14.77
2018-04-23T11:20:27.954Z,19.93
2018-04-23T11:22:54.209Z,16.87
2018-04-23T11:25:21.189Z,16.43
2018-04-23T11:27:47.480Z,19.17
2018-04-23T11:30:14.429Z,15.43
2018-04-23T11:32:42.040Z,15.73
2018-04-23T11:35:09.607Z,17.53
2018-04-23T11:37:35.796Z,15.47
2018-04-23T11:40:02.083Z,14.40
2018-04-23T11:42:28.415Z,13.43
2018-04-23T11:44:56.752Z,15.87
2018-04-23T11:47:23.519Z,16.33
2018-04-23T11:49:50.736Z,13.50
2018-04-23T11:52:17.147Z,10.70
2018-04-23T11:54:45.403Z,14.17
2018-04-23T11:57:12.280Z,17.27
2018-04-23T11:59:38.502Z,15.30
2018-04-23T12:02:04.950Z,12.57
2018-04-23T12:04:32.105Z,17.20
2018-04-23T12:06:58.967Z,13.57
2018-04-23T12:09:25.186Z,15.30
2018-04-23T12:11:51.761Z,16.10
2018-04-23T12:14:18.263Z,14.63
2018-04-23T12:16:45.808Z,15.00
2018-04-23T12:19:12.378Z,17.17
2018-04-23T12:21:40.102Z,16.47
2018-04-23T12:24:06.277Z,12.37
2018-04-23T12:26:32.498Z,15.70
2018-04-23T12:29:00.438Z,14.97
2018-04-23T12:31:34.907Z,15.17
2018-04-23T12:34:02.586Z,16.33
2018-04-23T12:36:29.549Z,15.03
2018-04-23T12:38:55.759Z,19.93
2018-04-23T12:41:23.036Z,17.07
2018-04-23T12:43:49.739Z,14.77
2018-04-23T12:46:17.835Z,15.67
2018-04-23T12:48:44.833Z,15.27
2018-04-23T12:51:11.836Z,15.03
2018-04-23T12:53:38.968Z,14.10
2018-04-23T12:56:05.860Z,13.67
2018-04-23T12:58:32.071Z,14.57
2018-04-23T13:00:58.266Z,14.03
2018-04-23T13:03:25.457Z,13.10
2018-04-23T13:05:52.263Z,13.97
2018-04-23T13:08:19.060Z,16.33
2018-04-23T13:10:45.798Z,16.13
2018-04-23T13:13:11.978Z,10.50
2018-04-23T13:15:38.477Z,11.43
2018-04-23T13:18:05.432Z,14.00
2018-04-23T13:20:32.381Z,10.17
2018-04-23T13:22:59.400Z,17.10
2018-04-23T13:25:25.642Z,11.00
2018-04-23T13:27:52.826Z,7.70
2018-04-23T13:30:19.566Z,16.97
2018-04-23T13:32:45.746Z,15.80
2018-04-23T13:35:12.944Z,11.80
2018-04-23T13:37:39.818Z,12.13
2018-04-23T13:40:07.038Z,10.60
2018-04-23T13:42:33.286Z,15.40
2018-04-23T13:45:00.081Z,10.33
2018-04-23T13:47:26.838Z,6.37
2018-04-23T13:49:53.041Z,10.57
2018-04-23T13:52:20.675Z,9.30
2018-04-23T13:54:47.561Z,10.93
2018-04-23T13:57:14.252Z,8.53
2018-04-23T13:59:40.824Z,11.93
2018-04-23T14:02:09.071Z,11.00
2018-04-23T14:04:37.090Z,9.37
2018-04-23T14:07:03.296Z,19.53
2018-04-23T14:09:30.575Z,13.90
2018-04-23T14:11:58.116Z,12.23
2018-04-23T14:14:24.678Z,10.90
2018-04-23T14:16:51.452Z,7.70
2018-04-23T14:19:17.664Z,9.70
2018-04-23T14:21:44.206Z,12.53
2018-04-23T14:24:11.991Z,12.33
2018-04-23T14:26:39.523Z,10.17
2018-04-23T14:29:06.313Z,12.30
2018-04-23T14:31:33.487Z,10.30
2018-04-23T14:34:00.204Z,12.77
2018-04-23T14:36:27.226Z,11.50
2018-04-23T14:38:53.554Z,12.90
2018-04-23T14:41:19.836Z,11.03
2018-04-23T14:43:46.908Z,9.30
2018-04-23T14:46:14.842Z,10.83
2018-04-23T14:48:41.040Z,15.00
2018-04-23T14:51:07.996Z,17.60
2018-04-23T14:53:34.909Z,11.77
2018-04-23T14:56:01.746Z,9.37
2018-04-23T14:58:28.451Z,12.70
2018-04-23T15:00:55.971Z,6.87
2018-04-23T15:03:23.254Z,10.47
2018-04-23T15:05:50.241Z,14.23
2018-04-23T15:08:16.498Z,9.50
2018-04-23T15:10:43.291Z,9.30
2018-04-23T15:13:09.484Z,8.23
2018-04-23T15:15:35.873Z,9.13
2018-04-23T15:18:02.812Z,8.13
2018-04-23T15:20:29.615Z,6.57
2018-04-23T15:22:56.429Z,10.70
2018-04-23T15:25:24.129Z,10.40
2018-04-23T15:27:50.320Z,9.30
2018-04-23T15:30:17.906Z,7.67
2018-04-23T15:32:44.102Z,5.80
2018-04-23T15:35:11.435Z,6.43
2018-04-23T15:37:38.935Z,8.17
2018-04-23T15:40:05.137Z,9.33
2018-04-23T15:42:32.113Z,10.23
2018-04-23T15:44:59.345Z,7.57
2018-04-23T15:47:26.770Z,7.80
2018-04-23T15:49:55.271Z,11.57
2018-04-23T15:52:22.594Z,8.37
2018-04-23T15:54:49.664Z,8.40
2018-04-23T15:57:17.335Z,10.57
2018-04-23T15:59:44.285Z,5.10
2018-04-23T16:02:12.296Z,7.20
2018-04-23T16:04:39.014Z,7.40
2018-04-23T16:07:06.547Z,7.27
2018-04-23T16:09:33.783Z,13.23
2018-04-23T16:11:59.983Z,7.40
2018-04-23T16:14:26.169Z,5.73
2018-04-23T16:16:52.561Z,9.50
2018-04-23T16:19:19.599Z,4.73
2018-04-23T16:21:45.827Z,8.27
2018-04-23T16:24:12.668Z,7.60
2018-04-23T16:26:38.870Z,5.77
2018-04-23T16:29:05.225Z,7.47
2018-04-23T16:31:31.436Z,4.00
2018-04-23T16:33:58.292Z,7.20
2018-04-23T16:36:24.471Z,4.23
2018-04-23T16:38:50.668Z,3.50
2018-04-23T16:41:16.867Z,13.70
2018-04-23T16:43:43.069Z,6.67
2018-04-23T16:46:09.297Z,9.67
2018-04-23T16:48:35.510Z,7.23
2018-04-23T16:51:02.340Z,4.40
2018-04-23T16:53:29.293Z,8.10
2018-04-23T16:55:55.871Z,5.60
2018-04-23T16:58:23.354Z,3.80
2018-04-23T17:00:50.144Z,5.13
2018-04-23T17:03:17.037Z,4.80
2018-04-23T17:05:43.303Z,6.23
2018-04-23T17:08:09.525Z,9.53
2018-04-23T17:10:37.457Z,6.70
2018-04-23T17:13:04.751Z,5.50
2018-04-23T17:15:31.477Z,6.97
2018-04-23T17:17:57.910Z,5.43
2018-04-23T17:20:24.837Z,6.10
2018-04-23T17:22:51.100Z,5.37
2018-04-23T17:25:18.314Z,8.43
2018-04-23T17:27:46.307Z,4.20
2018-04-23T17:30:13.873Z,6.40
2018-04-23T17:32:40.410Z,11.07
2018-04-23T17:35:07.466Z,9.30
2018-04-23T17:37:33.667Z,6.90
2018-04-23T17:40:01.548Z,8.00
2018-04-23T17:42:28.291Z,7.37
2018-04-23T17:44:55.059Z,8.20
2018-04-23T17:47:22.321Z,7.00
2018-04-23T17:49:49.319Z,7.17
2018-04-23T17:52:16.391Z,7.33
2018-04-23T17:54:43.169Z,6.70
2018-04-23T17:57:09.388Z,7.63
2018-04-23T17:59:36.786Z,7.97
2018-04-23T18:02:04.758Z,9.80
2018-04-23T18:04:32.245Z,7.40
2018-04-23T18:06:59.515Z,8.40
2018-04-23T18:09:26.588Z,6.47
2018-04-23T18:11:53.103Z,7.67
2018-04-23T18:14:20.116Z,6.77
2018-04-23T18:16:46.432Z,8.60
2018-04-23T18:19:13.384Z,5.40
2018-04-23T18:21:39.715Z,8.93
2018-04-23T18:24:06.588Z,9.00
2018-04-23T18:26:33.098Z,8.77
2018-04-23T18:28:59.907Z,10.50
2018-04-23T18:31:28.035Z,4.70
2018-04-23T18:33:54.604Z,5.23
2018-04-23T18:36:21.385Z,8.07
2018-04-23T18:38:47.999Z,8.53
2018-04-23T18:41:14.693Z,6.10
2018-04-23T18:43:40.933Z,7.00
2018-04-23T18:46:07.555Z,10.20
2018-04-23T18:48:33.785Z,11.20
2018-04-23T18:51:00.011Z,8.33
2018-04-23T18:53:26.953Z,8.40
2018-04-23T18:55:54.115Z,5.30
2018-04-23T18:58:20.325Z,9.50
2018-04-23T19:00:47.077Z,6.70
2018-04-23T19:03:13.683Z,5.40
2018-04-23T19:05:41.407Z,8.37
2018-04-23T19:08:07.913Z,7.17
2018-04-23T19:10:35.905Z,6.57
2018-04-23T19:13:02.124Z,7.13
2018-04-23T19:15:28.332Z,8.57
2018-04-23T19:17:55.153Z,5.33
2018-04-23T19:20:22.748Z,6.73
2018-04-23T19:22:50.741Z,6.40
2018-04-23T19:25:18.043Z,8.60
2018-04-23T19:27:44.282Z,8.40
2018-04-23T19:30:11.866Z,5.70
2018-04-23T19:32:38.303Z,7.80
2018-04-23T19:35:05.762Z,7.67
2018-04-23T19:37:33.397Z,7.27
2018-04-23T19:39:59.970Z,7.80
2018-04-23T19:42:27.265Z,8.93
2018-04-23T19:44:54.907Z,11.87
2018-04-23T19:47:21.785Z,12.63
2018-04-23T19:49:48.552Z,9.50
2018-04-23T19:52:14.812Z,9.53
2018-04-23T19:54:42.105Z,11.00
2018-04-23T19:57:08.475Z,7.20
2018-04-23T19:59:36.449Z,13.20
2018-04-23T20:02:03.610Z,6.17
2018-04-23T20:04:31.561Z,11.57
2018-04-23T20:06:58.297Z,9.03
2018-04-23T20:09:24.482Z,5.57
2018-04-23T20:11:50.873Z,8.03
2018-04-23T20:14:18.404Z,8.97
2018-04-23T20:16:44.688Z,7.03
2018-04-23T20:19:11.127Z,8.77
2018-04-23T20:21:37.483Z,8.70
2018-04-23T20:24:03.727Z,7.80
2018-04-23T20:26:30.295Z,7.80
2018-04-23T20:28:57.282Z,6.13
2018-04-23T20:31:23.779Z,10.80
2018-04-23T20:33:51.811Z,7.00
2018-04-23T20:36:19.939Z,7.07
2018-04-23T20:38:47.178Z,9.10
2018-04-23T20:41:13.410Z,7.93
2018-04-23T20:43:40.137Z,9.30
2018-04-23T20:46:07.680Z,8.60
2018-04-23T20:48:35.182Z,6.47
2018-04-23T20:51:01.444Z,13.83
2018-04-23T20:53:28.382Z,10.03
2018-04-23T20:55:54.590Z,6.37
2018-04-23T20:58:21.419Z,10.77
2018-04-23T21:00:48.268Z,14.30
2018-04-23T21:03:15.582Z,12.23
2018-04-23T21:05:42.984Z,6.30
2018-04-23T21:08:10.356Z,10.27
2018-04-23T21:10:36.611Z,7.53
2018-04-23T21:13:03.806Z,10.93
2018-04-23T21:15:30.767Z,7.33
2018-04-23T21:17:57.894Z,16.10
2018-04-23T21:20:24.125Z,8.60
2018-04-23T21:22:50.396Z,9.53
2018-04-23T21:25:16.629Z,12.17
2018-04-23T21:27:50.078Z,10.90
2018-04-23T21:30:17.361Z,6.97
2018-04-23T21:32:43.632Z,10.83
2018-04-23T21:35:11.616Z,10.10
2018-04-23T21:37:38.038Z,10.00
2018-04-23T21:40:04.975Z,11.47
2018-04-23T21:42:34.283Z,9.83
2018-04-23T21:45:02.320Z,10.20
2018-04-23T21:47:28.555Z,9.20
2018-04-23T21:49:55.048Z,11.10
2018-04-23T21:52:22.064Z,9.97
2018-04-23T21:54:48.270Z,8.40
2018-04-23T21:57:16.016Z,14.70
2018-04-23T21:59:42.417Z,14.20
2018-04-23T22:02:09.311Z,11.67
2018-04-23T22:04:36.144Z,8.50
2018-04-23T22:07:02.886Z,9.60
2018-04-23T22:09:29.639Z,8.07
2018-04-23T22:11:56.575Z,9.93
2018-04-23T22:14:23.414Z,8.67
2018-04-23T22:16:50.961Z,15.43
2018-04-23T22:19:17.203Z,11.23
2018-04-23T22:21:44.041Z,8.33
2018-04-23T22:24:10.248Z,12.07
2018-04-23T22:26:36.443Z,10.23
2018-04-23T22:29:03.222Z,8.70
2018-04-23T22:31:29.468Z,12.37
2018-04-23T22:33:56.934Z,11.17
2018-04-23T22:36:24.869Z,12.70
2018-04-23T22:38:51.090Z,9.50
2018-04-23T22:41:17.285Z,9.33
2018-04-23T22:43:44.199Z,6.50
2018-04-23T22:46:12.494Z,7.50
2018-04-23T22:48:39.163Z,9.70
2018-04-23T22:51:06.208Z,9.33
2018-04-23T22:53:33.020Z,14.90
2018-04-23T22:55:59.316Z,9.07
2018-04-23T22:58:25.623Z,8.90
2018-04-23T23:00:52.864Z,12.33
2018-04-23T23:03:20.488Z,13.00
2018-04-23T23:05:48.460Z,13.90
2018-04-23T23:08:15.201Z,10.93
2018-04-23T23:10:42.465Z,9.67
2018-04-23T23:13:09.222Z,12.30
2018-04-23T23:15:36.399Z,9.67
2018-04-23T23:18:04.055Z,9.87
2018-04-23T23:20:31.635Z,13.70
2018-04-23T23:22:58.701Z,8.60
2018-04-23T23:25:26.670Z,9.43
2018-04-23T23:27:53.739Z,15.40
2018-04-23T23:30:20.705Z,10.67
2018-04-23T23:32:47.334Z,11.80
2018-04-23T23:35:14.213Z,7.57
2018-04-23T23:37:40.985Z,11.73
2018-04-23T23:40:08.009Z,13.30
2018-04-23T23:42:35.611Z,11.53
2018-04-23T23:45:01.904Z,10.73
2018-04-23T23:47:28.081Z,11.87
2018-04-23T23:49:54.371Z,8.87
2018-04-23T23:52:21.879Z,9.50
2018-04-23T23:54:48.699Z,8.57
2018-04-23T23:57:16.123Z,16.20
2018-04-23T23:59:43.669Z,11.80
